sensor_id;sensor_type;location;lat;lon;timestamp;pressure;altitude;pressure_sealevel;temperature;humidity
49030;BME280;43337;52.070;4.508;2022-10-16T00:01:28;100996.63;;;13.65;81.55
49030;BME280;43337;52.070;4.508;2022-10-16T00:03:57;100965.06;;;13.45;81.26
49030;BME280;43337;52.070;4.508;2022-10-16T00:06:34;100992.44;;;13.61;81.31
49030;BME280;43337;52.070;4.508;2022-10-16T00:09:02;100956.50;;;13.40;81.37
49030;BME280;43337;52.070;4.508;2022-10-16T00:11:31;100993.28;;;13.62;81.24
49030;BME280;43337;52.070;4.508;2022-10-16T00:14:03;100959.16;;;13.40;81.28
49030;BME280;43337;52.070;4.508;2022-10-16T00:16:30;101007.97;;;13.67;81.19
49030;BME280;43337;52.070;4.508;2022-10-16T00:18:56;100981.06;;;13.59;81.24
49030;BME280;43337;52.070;4.508;2022-10-16T00:21:24;100963.28;;;13.46;81.21
49030;BME280;43337;52.070;4.508;2022-10-16T00:23:51;101015.34;;;13.78;81.12
49030;BME280;43337;52.070;4.508;2022-10-16T00:26:18;100989.53;;;13.66;81.23
49030;BME280;43337;52.070;4.508;2022-10-16T00:28:48;100980.06;;;13.62;80.95
49030;BME280;43337;52.070;4.508;2022-10-16T00:31:14;100995.13;;;13.77;80.76
49030;BME280;43337;52.070;4.508;2022-10-16T00:33:40;101002.66;;;13.85;80.86
49030;BME280;43337;52.070;4.508;2022-10-16T00:36:07;100939.22;;;13.50;80.51
49030;BME280;43337;52.070;4.508;2022-10-16T00:38:33;100952.59;;;13.64;80.29
49030;BME280;43337;52.070;4.508;2022-10-16T00:40:58;100982.19;;;13.71;80.42
49030;BME280;43337;52.070;4.508;2022-10-16T00:46:09;100955.25;;;13.64;80.31
49030;BME280;43337;52.070;4.508;2022-10-16T00:48:36;100981.47;;;13.85;80.10
49030;BME280;43337;52.070;4.508;2022-10-16T00:51:01;101003.09;;;13.93;80.18
49030;BME280;43337;52.070;4.508;2022-10-16T00:53:27;101005.63;;;13.95;80.21
49030;BME280;43337;52.070;4.508;2022-10-16T00:55:53;100961.72;;;13.75;80.28
49030;BME280;43337;52.070;4.508;2022-10-16T00:58:19;100952.25;;;13.71;80.16
49030;BME280;43337;52.070;4.508;2022-10-16T01:00:45;100985.66;;;13.89;80.18
49030;BME280;43337;52.070;4.508;2022-10-16T01:03:31;101002.94;;;13.96;80.32
49030;BME280;43337;52.070;4.508;2022-10-16T01:06:24;101002.16;;;13.94;80.52
49030;BME280;43337;52.070;4.508;2022-10-16T01:09:16;101009.34;;;13.92;80.48
49030;BME280;43337;52.070;4.508;2022-10-16T01:11:57;101005.28;;;13.85;80.61
49030;BME280;43337;52.070;4.508;2022-10-16T01:25:21;100993.19;;;13.63;81.40
49030;BME280;43337;52.070;4.508;2022-10-16T01:27:50;100973.00;;;13.45;81.80
49030;BME280;43337;52.070;4.508;2022-10-16T01:32:55;101014.59;;;13.59;82.13
49030;BME280;43337;52.070;4.508;2022-10-16T01:35:27;101009.97;;;13.47;82.41
49030;BME280;43337;52.070;4.508;2022-10-16T01:40:32;101013.00;;;13.39;82.83
49030;BME280;43337;52.070;4.508;2022-10-16T01:43:03;101013.28;;;13.33;83.38
49030;BME280;43337;52.070;4.508;2022-10-16T01:45:31;101020.94;;;13.39;83.33
49030;BME280;43337;52.070;4.508;2022-10-16T01:47:58;100961.94;;;13.02;83.32
49030;BME280;43337;52.070;4.508;2022-10-16T01:50:26;100979.06;;;13.12;83.81
49030;BME280;43337;52.070;4.508;2022-10-16T01:52:54;101021.16;;;13.34;83.94
49030;BME280;43337;52.070;4.508;2022-10-16T01:55:29;100969.88;;;13.02;84.21
49030;BME280;43337;52.070;4.508;2022-10-16T01:57:56;101010.41;;;13.20;nan
49030;BME280;43337;52.070;4.508;2022-10-16T02:00:23;100987.53;;;13.02;84.44
49030;BME280;43337;52.070;4.508;2022-10-16T02:02:52;101028.81;;;13.22;84.54
49030;BME280;43337;52.070;4.508;2022-10-16T02:05:26;101033.34;;;13.19;84.64
49030;BME280;43337;52.070;4.508;2022-10-16T02:07:53;101023.78;;;13.17;84.90
49030;BME280;43337;52.070;4.508;2022-10-16T02:10:19;101019.66;;;13.11;85.02
49030;BME280;43337;52.070;4.508;2022-10-16T02:12:49;101033.19;;;13.23;85.22
49030;BME280;43337;52.070;4.508;2022-10-16T02:15:15;100992.19;;;12.97;85.00
49030;BME280;43337;52.070;4.508;2022-10-16T02:17:41;101024.00;;;13.12;85.25
49030;BME280;43337;52.070;4.508;2022-10-16T02:20:07;101032.41;;;13.20;85.38
49030;BME280;43337;52.070;4.508;2022-10-16T02:22:38;101031.53;;;13.20;85.36
49030;BME280;43337;52.070;4.508;2022-10-16T02:25:15;100992.44;;;12.92;85.30
49030;BME280;43337;52.070;4.508;2022-10-16T02:27:53;101031.53;;;13.20;85.43
49030;BME280;43337;52.070;4.508;2022-10-16T02:30:26;101018.72;;;13.12;85.36
49030;BME280;43337;52.070;4.508;2022-10-16T02:32:53;101029.16;;;13.15;85.33
49030;BME280;43337;52.070;4.508;2022-10-16T02:35:21;101015.59;;;13.04;85.37
49030;BME280;43337;52.070;4.508;2022-10-16T02:37:48;100980.13;;;12.91;85.42
49030;BME280;43337;52.070;4.508;2022-10-16T02:40:15;100983.25;;;12.82;85.47
49030;BME280;43337;52.070;4.508;2022-10-16T02:42:41;101017.63;;;12.99;85.50
49030;BME280;43337;52.070;4.508;2022-10-16T02:45:09;101036.44;;;13.10;85.86
49030;BME280;43337;52.070;4.508;2022-10-16T02:47:35;101012.50;;;12.96;85.50
49030;BME280;43337;52.070;4.508;2022-10-16T02:50:00;101032.94;;;13.10;85.58
49030;BME280;43337;52.070;4.508;2022-10-16T02:52:26;101011.69;;;12.94;85.64
49030;BME280;43337;52.070;4.508;2022-10-16T02:54:51;101011.00;;;12.90;85.51
49030;BME280;43337;52.070;4.508;2022-10-16T02:57:17;101012.78;;;12.90;85.72
49030;BME280;43337;52.070;4.508;2022-10-16T02:59:43;101010.22;;;12.88;85.74
49030;BME280;43337;52.070;4.508;2022-10-16T03:02:08;101030.06;;;12.97;85.69
49030;BME280;43337;52.070;4.508;2022-10-16T03:04:34;101032.84;;;12.94;85.97
49030;BME280;43337;52.070;4.508;2022-10-16T03:06:59;101027.69;;;12.91;86.16
49030;BME280;43337;52.070;4.508;2022-10-16T03:09:25;101048.25;;;13.03;86.14
49030;BME280;43337;52.070;4.508;2022-10-16T03:11:50;101025.53;;;12.82;86.32
49030;BME280;43337;52.070;4.508;2022-10-16T03:14:15;101057.19;;;13.01;86.42
49030;BME280;43337;52.070;4.508;2022-10-16T03:16:41;101055.47;;;13.00;86.30
49030;BME280;43337;52.070;4.508;2022-10-16T03:19:06;101022.88;;;12.82;86.40
49030;BME280;43337;52.070;4.508;2022-10-16T03:21:32;101058.88;;;13.02;86.31
49030;BME280;43337;52.070;4.508;2022-10-16T03:23:57;101038.84;;;12.98;86.74
49030;BME280;43337;52.070;4.508;2022-10-16T03:26:22;101065.75;;;13.06;86.82
49030;BME280;43337;52.070;4.508;2022-10-16T03:28:48;101038.44;;;12.88;86.69
49030;BME280;43337;52.070;4.508;2022-10-16T03:31:13;101040.75;;;12.94;86.83
49030;BME280;43337;52.070;4.508;2022-10-16T03:33:38;101066.59;;;13.06;86.79
49030;BME280;43337;52.070;4.508;2022-10-16T03:36:04;101055.25;;;13.04;86.66
49030;BME280;43337;52.070;4.508;2022-10-16T03:38:29;101065.44;;;13.12;86.64
49030;BME280;43337;52.070;4.508;2022-10-16T03:40:55;101079.06;;;13.22;86.57
49030;BME280;43337;52.070;4.508;2022-10-16T03:43:20;101058.13;;;13.17;86.61
49030;BME280;43337;52.070;4.508;2022-10-16T03:45:45;101059.13;;;13.14;86.78
49030;BME280;43337;52.070;4.508;2022-10-16T03:48:11;101044.53;;;13.07;86.61
49030;BME280;43337;52.070;4.508;2022-10-16T03:50:36;101035.81;;;13.05;86.47
49030;BME280;43337;52.070;4.508;2022-10-16T03:53:02;101047.22;;;13.06;86.46
49030;BME280;43337;52.070;4.508;2022-10-16T03:55:27;101089.22;;;13.31;86.50
49030;BME280;43337;52.070;4.508;2022-10-16T03:57:53;101070.41;;;13.18;86.43
49030;BME280;43337;52.070;4.508;2022-10-16T04:00:18;101085.19;;;13.22;86.54
49030;BME280;43337;52.070;4.508;2022-10-16T04:02:44;101096.44;;;13.27;86.49
49030;BME280;43337;52.070;4.508;2022-10-16T04:05:11;101100.88;;;13.27;86.55
49030;BME280;43337;52.070;4.508;2022-10-16T04:07:36;101089.25;;;13.12;86.50
49030;BME280;43337;52.070;4.508;2022-10-16T04:10:02;101070.25;;;13.04;86.49
49030;BME280;43337;52.070;4.508;2022-10-16T04:12:27;101102.94;;;13.20;86.60
49030;BME280;43337;52.070;4.508;2022-10-16T04:14:53;101086.97;;;13.04;86.66
49030;BME280;43337;52.070;4.508;2022-10-16T04:17:18;101064.88;;;12.88;86.58
49030;BME280;43337;52.070;4.508;2022-10-16T04:19:44;101094.75;;;13.07;87.06
49030;BME280;43337;52.070;4.508;2022-10-16T04:22:09;101085.09;;;13.06;86.95
49030;BME280;43337;52.070;4.508;2022-10-16T04:24:34;101097.94;;;13.14;86.95
49030;BME280;43337;52.070;4.508;2022-10-16T04:27:00;101103.94;;;13.17;87.03
49030;BME280;43337;52.070;4.508;2022-10-16T04:29:25;101090.59;;;13.02;87.09
49030;BME280;43337;52.070;4.508;2022-10-16T04:31:51;101112.00;;;13.14;87.23
49030;BME280;43337;52.070;4.508;2022-10-16T04:34:16;101095.13;;;13.00;87.19
49030;BME280;43337;52.070;4.508;2022-10-16T04:36:41;101127.81;;;13.16;87.43
49030;BME280;43337;52.070;4.508;2022-10-16T04:39:07;101113.25;;;13.07;87.26
49030;BME280;43337;52.070;4.508;2022-10-16T04:41:32;101126.25;;;13.12;87.61
49030;BME280;43337;52.070;4.508;2022-10-16T04:43:58;101153.16;;;13.20;87.28
49030;BME280;43337;52.070;4.508;2022-10-16T04:46:23;101135.25;;;13.08;87.64
49030;BME280;43337;52.070;4.508;2022-10-16T04:48:48;101141.50;;;13.07;87.80
49030;BME280;43337;52.070;4.508;2022-10-16T04:51:14;101153.69;;;13.09;87.81
49030;BME280;43337;52.070;4.508;2022-10-16T04:53:39;101174.41;;;13.18;87.79
49030;BME280;43337;52.070;4.508;2022-10-16T04:56:04;101129.06;;;12.90;87.54
49030;BME280;43337;52.070;4.508;2022-10-16T04:58:30;101169.41;;;13.12;88.17
49030;BME280;43337;52.070;4.508;2022-10-16T05:00:55;101180.75;;;13.14;88.08
49030;BME280;43337;52.070;4.508;2022-10-16T05:03:21;101182.47;;;13.15;88.33
49030;BME280;43337;52.070;4.508;2022-10-16T05:05:46;101164.63;;;13.02;88.42
49030;BME280;43337;52.070;4.508;2022-10-16T05:08:13;101188.66;;;13.14;88.15
49030;BME280;43337;52.070;4.508;2022-10-16T05:10:40;101187.19;;;13.09;88.23
49030;BME280;43337;52.070;4.508;2022-10-16T05:13:05;101186.00;;;12.97;88.15
49030;BME280;43337;52.070;4.508;2022-10-16T05:15:31;101170.41;;;12.72;88.38
49030;BME280;43337;52.070;4.508;2022-10-16T05:17:56;101199.09;;;12.80;88.73
49030;BME280;43337;52.070;4.508;2022-10-16T05:20:22;101177.81;;;12.64;89.07
49030;BME280;43337;52.070;4.508;2022-10-16T05:22:48;101188.69;;;12.58;89.83
49030;BME280;43337;52.070;4.508;2022-10-16T05:25:13;101168.25;;;12.42;89.63
49030;BME280;43337;52.070;4.508;2022-10-16T05:27:39;101202.03;;;12.55;89.96
49030;BME280;43337;52.070;4.508;2022-10-16T05:30:05;101211.78;;;12.53;90.04
49030;BME280;43337;52.070;4.508;2022-10-16T05:32:30;101214.63;;;12.48;90.64
49030;BME280;43337;52.070;4.508;2022-10-16T05:34:56;101199.97;;;12.41;90.39
49030;BME280;43337;52.070;4.508;2022-10-16T05:37:21;101233.84;;;12.52;91.46
49030;BME280;43337;52.070;4.508;2022-10-16T05:39:46;101194.59;;;12.24;91.20
49030;BME280;43337;52.070;4.508;2022-10-16T05:42:12;101167.41;;;12.01;91.39
49030;BME280;43337;52.070;4.508;2022-10-16T05:44:37;101214.66;;;12.28;92.06
49030;BME280;43337;52.070;4.508;2022-10-16T05:47:03;101213.06;;;12.24;92.18
49030;BME280;43337;52.070;4.508;2022-10-16T05:49:28;101198.69;;;12.10;92.65
49030;BME280;43337;52.070;4.508;2022-10-16T05:51:53;101178.78;;;12.03;92.49
49030;BME280;43337;52.070;4.508;2022-10-16T05:54:19;101231.28;;;12.30;92.86
49030;BME280;43337;52.070;4.508;2022-10-16T05:56:44;101229.69;;;12.26;92.86
49030;BME280;43337;52.070;4.508;2022-10-16T05:59:09;101217.56;;;12.21;93.22
49030;BME280;43337;52.070;4.508;2022-10-16T06:01:35;101243.69;;;12.28;93.34
49030;BME280;43337;52.070;4.508;2022-10-16T06:04:01;101210.38;;;12.05;93.53
49030;BME280;43337;52.070;4.508;2022-10-16T06:06:26;101202.78;;;11.97;93.91
49030;BME280;43337;52.070;4.508;2022-10-16T06:08:53;101227.47;;;12.16;93.81
49030;BME280;43337;52.070;4.508;2022-10-16T06:11:24;101236.44;;;12.12;93.86
49030;BME280;43337;52.070;4.508;2022-10-16T06:13:51;101241.63;;;12.14;94.30
49030;BME280;43337;52.070;4.508;2022-10-16T06:16:17;101238.09;;;12.15;93.99
49030;BME280;43337;52.070;4.508;2022-10-16T06:18:43;101228.00;;;12.04;94.05
49030;BME280;43337;52.070;4.508;2022-10-16T06:21:14;101251.22;;;12.16;94.26
49030;BME280;43337;52.070;4.508;2022-10-16T06:23:40;101242.91;;;12.05;94.35
49030;BME280;43337;52.070;4.508;2022-10-16T06:26:12;101227.59;;;11.93;93.99
49030;BME280;43337;52.070;4.508;2022-10-16T06:28:38;101220.53;;;11.93;94.56
49030;BME280;43337;52.070;4.508;2022-10-16T06:31:04;101222.44;;;11.90;94.81
49030;BME280;43337;52.070;4.508;2022-10-16T06:33:30;101235.19;;;12.01;94.97
49030;BME280;43337;52.070;4.508;2022-10-16T06:36:07;101272.47;;;12.13;94.85
49030;BME280;43337;52.070;4.508;2022-10-16T06:38:34;101258.06;;;12.00;95.29
49030;BME280;43337;52.070;4.508;2022-10-16T06:40:59;101271.53;;;12.14;95.03
49030;BME280;43337;52.070;4.508;2022-10-16T06:43:25;101251.22;;;11.96;94.98
49030;BME280;43337;52.070;4.508;2022-10-16T06:45:55;101250.41;;;11.94;94.94
49030;BME280;43337;52.070;4.508;2022-10-16T06:48:22;101285.63;;;12.15;94.93
49030;BME280;43337;52.070;4.508;2022-10-16T06:51:01;101289.97;;;12.16;95.09
49030;BME280;43337;52.070;4.508;2022-10-16T06:53:28;101301.28;;;12.18;95.05
49030;BME280;43337;52.070;4.508;2022-10-16T06:55:54;101270.56;;;11.95;95.11
49030;BME280;43337;52.070;4.508;2022-10-16T06:58:19;101293.84;;;12.07;94.83
49030;BME280;43337;52.070;4.508;2022-10-16T07:00:45;101312.88;;;12.15;95.45
49030;BME280;43337;52.070;4.508;2022-10-16T07:03:11;101289.78;;;11.98;95.06
49030;BME280;43337;52.070;4.508;2022-10-16T07:05:41;101295.91;;;11.99;95.07
49030;BME280;43337;52.070;4.508;2022-10-16T07:08:06;101296.06;;;11.96;94.89
49030;BME280;43337;52.070;4.508;2022-10-16T07:10:32;101296.22;;;11.91;94.94
49030;BME280;43337;52.070;4.508;2022-10-16T07:12:58;101302.19;;;11.96;94.95
49030;BME280;43337;52.070;4.508;2022-10-16T07:15:25;101300.66;;;11.91;95.10
49030;BME280;43337;52.070;4.508;2022-10-16T07:17:50;101292.16;;;11.84;95.00
49030;BME280;43337;52.070;4.508;2022-10-16T07:20:16;101345.69;;;12.08;95.03
49030;BME280;43337;52.070;4.508;2022-10-16T07:22:41;101304.44;;;11.84;95.29
49030;BME280;43337;52.070;4.508;2022-10-16T07:25:07;101365.78;;;12.12;95.56
49030;BME280;43337;52.070;4.508;2022-10-16T07:27:32;101360.50;;;12.12;95.32
49030;BME280;43337;52.070;4.508;2022-10-16T07:29:58;101336.63;;;11.93;95.22
49030;BME280;43337;52.070;4.508;2022-10-16T07:32:23;101336.56;;;11.95;95.22
49030;BME280;43337;52.070;4.508;2022-10-16T07:34:51;101310.88;;;11.77;95.46
49030;BME280;43337;52.070;4.508;2022-10-16T07:37:16;101377.19;;;12.13;95.40
49030;BME280;43337;52.070;4.508;2022-10-16T07:39:41;101380.19;;;12.26;95.25
49030;BME280;43337;52.070;4.508;2022-10-16T07:42:07;101364.06;;;12.11;95.21
49030;BME280;43337;52.070;4.508;2022-10-16T07:44:32;101394.31;;;12.25;95.47
49030;BME280;43337;52.070;4.508;2022-10-16T07:46:58;101358.94;;;12.07;95.91
49030;BME280;43337;52.070;4.508;2022-10-16T07:49:24;101414.88;;;12.38;95.63
49030;BME280;43337;52.070;4.508;2022-10-16T07:51:49;101405.41;;;12.33;95.55
49030;BME280;43337;52.070;4.508;2022-10-16T07:54:15;101385.59;;;12.23;95.50
49030;BME280;43337;52.070;4.508;2022-10-16T07:56:40;101368.41;;;12.12;95.37
49030;BME280;43337;52.070;4.508;2022-10-16T07:59:06;101397.63;;;12.30;95.50
49030;BME280;43337;52.070;4.508;2022-10-16T08:01:31;101438.06;;;12.52;95.68
49030;BME280;43337;52.070;4.508;2022-10-16T08:03:56;101427.03;;;12.42;95.82
49030;BME280;43337;52.070;4.508;2022-10-16T08:06:22;101448.44;;;12.57;95.65
49030;BME280;43337;52.070;4.508;2022-10-16T08:08:48;101422.69;;;12.41;95.67
49030;BME280;43337;52.070;4.508;2022-10-16T08:11:14;101461.28;;;12.66;95.59
49030;BME280;43337;52.070;4.508;2022-10-16T08:13:40;101459.44;;;12.68;95.57
49030;BME280;43337;52.070;4.508;2022-10-16T08:16:06;101462.81;;;12.71;95.62
49030;BME280;43337;52.070;4.508;2022-10-16T08:18:36;101470.56;;;12.76;95.52
49030;BME280;43337;52.070;4.508;2022-10-16T08:21:02;101422.91;;;12.57;95.66
49030;BME280;43337;52.070;4.508;2022-10-16T08:23:34;101429.78;;;12.61;95.67
49030;BME280;43337;52.070;4.508;2022-10-16T08:26:05;101436.53;;;12.68;95.54
49030;BME280;43337;52.070;4.508;2022-10-16T08:28:31;101481.34;;;12.92;95.55
49030;BME280;43337;52.070;4.508;2022-10-16T08:30:56;101477.72;;;12.94;95.63
49030;BME280;43337;52.070;4.508;2022-10-16T08:33:30;101461.94;;;12.93;95.48
49030;BME280;43337;52.070;4.508;2022-10-16T08:35:55;101450.94;;;12.82;95.21
49030;BME280;43337;52.070;4.508;2022-10-16T08:38:21;101493.97;;;13.06;95.46
49030;BME280;43337;52.070;4.508;2022-10-16T08:40:47;101465.34;;;12.95;95.28
49030;BME280;43337;52.070;4.508;2022-10-16T08:48:57;101511.66;;;13.26;95.18
49030;BME280;43337;52.070;4.508;2022-10-16T08:51:36;101514.06;;;13.32;94.86
49030;BME280;43337;52.070;4.508;2022-10-16T08:54:10;101503.84;;;13.23;94.77
49030;BME280;43337;52.070;4.508;2022-10-16T08:56:41;101501.03;;;13.27;94.59
49030;BME280;43337;52.070;4.508;2022-10-16T08:59:10;101524.06;;;13.46;94.70
49030;BME280;43337;52.070;4.508;2022-10-16T09:01:46;101507.63;;;13.37;94.66
49030;BME280;43337;52.070;4.508;2022-10-16T09:04:28;101527.47;;;13.48;94.60
49030;BME280;43337;52.070;4.508;2022-10-16T09:09:59;101535.81;;;13.59;94.13
49030;BME280;43337;52.070;4.508;2022-10-16T09:12:51;101548.81;;;13.63;94.21
49030;BME280;43337;52.070;4.508;2022-10-16T09:20:53;101539.66;;;13.72;93.98
49030;BME280;43337;52.070;4.508;2022-10-16T09:25:51;101521.31;;;13.67;93.35
49030;BME280;43337;52.070;4.508;2022-10-16T09:28:18;101533.22;;;13.78;93.38
49030;BME280;43337;52.070;4.508;2022-10-16T09:30:44;101552.84;;;13.92;93.20
49030;BME280;43337;52.070;4.508;2022-10-16T09:33:12;101556.63;;;14.06;93.08
49030;BME280;43337;52.070;4.508;2022-10-16T09:35:50;101557.09;;;14.15;92.68
49030;BME280;43337;52.070;4.508;2022-10-16T09:38:26;101555.88;;;14.23;92.64
49030;BME280;43337;52.070;4.508;2022-10-16T09:40:53;101542.66;;;14.23;92.34
49030;BME280;43337;52.070;4.508;2022-10-16T09:43:35;101554.31;;;14.37;92.11
49030;BME280;43337;52.070;4.508;2022-10-16T09:46:06;101549.72;;;14.41;91.81
49030;BME280;43337;52.070;4.508;2022-10-16T09:48:37;101545.72;;;14.51;91.60
49030;BME280;43337;52.070;4.508;2022-10-16T09:51:13;101565.34;;;14.66;91.26
49030;BME280;43337;52.070;4.508;2022-10-16T09:53:43;101560.63;;;14.73;91.39
49030;BME280;43337;52.070;4.508;2022-10-16T09:56:31;101556.03;;;14.76;91.28
49030;BME280;43337;52.070;4.508;2022-10-16T09:59:00;101566.63;;;14.76;90.93
49030;BME280;43337;52.070;4.508;2022-10-16T10:01:50;101565.75;;;14.76;90.06
49030;BME280;43337;52.070;4.508;2022-10-16T10:04:17;101511.63;;;14.44;89.92
49030;BME280;43337;52.070;4.508;2022-10-16T10:14:44;101565.84;;;14.55;88.76
49030;BME280;43337;52.070;4.508;2022-10-16T10:19:47;101521.09;;;14.11;88.53
49030;BME280;43337;52.070;4.508;2022-10-16T10:24:57;101582.38;;;14.41;88.18
49030;BME280;43337;52.070;4.508;2022-10-16T10:27:32;101597.88;;;14.51;87.50
49030;BME280;43337;52.070;4.508;2022-10-16T10:33:00;101576.16;;;14.43;85.99
49030;BME280;43337;52.070;4.508;2022-10-16T10:35:43;101605.19;;;14.64;83.49
49030;BME280;43337;52.070;4.508;2022-10-16T10:38:22;101601.75;;;14.62;84.30
49030;BME280;43337;52.070;4.508;2022-10-16T10:44:03;101596.00;;;14.72;82.54
49030;BME280;43337;52.070;4.508;2022-10-16T10:46:44;101615.25;;;14.94;82.99
49030;BME280;43337;52.070;4.508;2022-10-16T10:54:51;101616.41;;;15.25;82.48
49030;BME280;43337;52.070;4.508;2022-10-16T10:57:30;101617.66;;;15.35;82.26
49030;BME280;43337;52.070;4.508;2022-10-16T11:00:39;101618.94;;;15.45;81.98
49030;BME280;43337;52.070;4.508;2022-10-16T11:08:37;101606.28;;;15.50;80.79
49030;BME280;43337;52.070;4.508;2022-10-16T11:11:11;101611.91;;;15.61;80.76
49030;BME280;43337;52.070;4.508;2022-10-16T11:13:44;101596.97;;;15.59;80.59
49030;BME280;43337;52.070;4.508;2022-10-16T11:16:26;101643.69;;;15.98;79.92
49030;BME280;43337;52.070;4.508;2022-10-16T11:19:10;101633.91;;;15.98;79.86
49030;BME280;43337;52.070;4.508;2022-10-16T11:21:44;101636.72;;;16.13;79.07
49030;BME280;43337;52.070;4.508;2022-10-16T11:24:27;101636.00;;;16.09;76.89
49030;BME280;43337;52.070;4.508;2022-10-16T11:27:06;101627.19;;;16.08;77.98
49030;BME280;43337;52.070;4.508;2022-10-16T11:29:35;101631.41;;;16.13;77.62
49030;BME280;43337;52.070;4.508;2022-10-16T11:32:19;101660.41;;;16.33;77.16
49030;BME280;43337;52.070;4.508;2022-10-16T11:34:53;101630.28;;;16.17;75.69
49030;BME280;43337;52.070;4.508;2022-10-16T11:37:24;101629.34;;;16.18;74.30
49030;BME280;43337;52.070;4.508;2022-10-16T11:39:54;101655.28;;;16.30;74.33
49030;BME280;43337;52.070;4.508;2022-10-16T11:42:31;101646.78;;;16.23;73.33
49030;BME280;43337;52.070;4.508;2022-10-16T11:45:13;101656.16;;;16.30;73.08
49030;BME280;43337;52.070;4.508;2022-10-16T11:47:54;101658.00;;;16.28;73.02
49030;BME280;43337;52.070;4.508;2022-10-16T11:50:28;101624.69;;;16.05;72.77
49030;BME280;43337;52.070;4.508;2022-10-16T11:55:44;101644.44;;;16.17;72.42
49030;BME280;43337;52.070;4.508;2022-10-16T11:58:24;101669.09;;;16.36;70.56
49030;BME280;43337;52.070;4.508;2022-10-16T12:00:58;101654.25;;;16.32;71.73
49030;BME280;43337;52.070;4.508;2022-10-16T12:09:00;101657.34;;;16.41;70.22
49030;BME280;43337;52.070;4.508;2022-10-16T12:14:03;101648.53;;;16.40;69.58
49030;BME280;43337;52.070;4.508;2022-10-16T12:16:29;101653.59;;;16.45;69.38
49030;BME280;43337;52.070;4.508;2022-10-16T12:19:14;101663.91;;;16.51;68.74
49030;BME280;43337;52.070;4.508;2022-10-16T12:21:41;101646.72;;;16.41;68.14
49030;BME280;43337;52.070;4.508;2022-10-16T12:24:20;101655.31;;;16.46;66.51
49030;BME280;43337;52.070;4.508;2022-10-16T12:26:48;101710.13;;;16.64;67.52
49030;BME280;43337;52.070;4.508;2022-10-16T12:29:36;101679.16;;;16.47;65.16
49030;BME280;43337;52.070;4.508;2022-10-16T12:32:05;101697.44;;;16.53;66.20
49030;BME280;43337;52.070;4.508;2022-10-16T12:37:29;101701.53;;;16.43;66.07
49030;BME280;43337;52.070;4.508;2022-10-16T12:39:57;101701.69;;;16.40;66.07
49030;BME280;43337;52.070;4.508;2022-10-16T12:44:52;101662.44;;;16.12;65.83
49030;BME280;43337;52.070;4.508;2022-10-16T12:47:46;101650.41;;;16.05;65.32
49030;BME280;43337;52.070;4.508;2022-10-16T12:50:32;101674.44;;;16.19;66.97
49030;BME280;43337;52.070;4.508;2022-10-16T12:52:58;101697.81;;;16.30;66.50
49030;BME280;43337;52.070;4.508;2022-10-16T12:55:24;101676.00;;;16.23;67.50
49030;BME280;43337;52.070;4.508;2022-10-16T13:00:57;101692.84;;;16.40;67.74
49030;BME280;43337;52.070;4.508;2022-10-16T13:04:02;101701.53;;;16.43;67.60
49030;BME280;43337;52.070;4.508;2022-10-16T13:18:22;101715.59;;;16.45;68.08
49030;BME280;43337;52.070;4.508;2022-10-16T13:23:51;101713.25;;;16.39;68.18
49030;BME280;43337;52.070;4.508;2022-10-16T13:29:20;101700.06;;;16.20;68.18
49030;BME280;43337;52.070;4.508;2022-10-16T13:31:46;101729.47;;;16.34;68.11
49030;BME280;43337;52.070;4.508;2022-10-16T13:34:21;101726.78;;;16.34;67.65
49030;BME280;43337;52.070;4.508;2022-10-16T13:36:49;101741.03;;;16.33;67.63
49030;BME280;43337;52.070;4.508;2022-10-16T13:39:22;101741.09;;;16.32;67.52
49030;BME280;43337;52.070;4.508;2022-10-16T13:42:07;101748.22;;;16.31;67.07
49030;BME280;43337;52.070;4.508;2022-10-16T13:44:49;101711.09;;;16.13;67.35
49030;BME280;43337;52.070;4.508;2022-10-16T13:49:45;101712.59;;;16.18;67.29
49030;BME280;43337;52.070;4.508;2022-10-16T13:52:18;101729.47;;;16.34;66.71
49030;BME280;43337;52.070;4.508;2022-10-16T13:54:44;101732.81;;;16.38;67.13
49030;BME280;43337;52.070;4.508;2022-10-16T13:57:14;101707.91;;;16.23;66.59
49030;BME280;43337;52.070;4.508;2022-10-16T13:59:40;101739.75;;;16.41;66.90
49030;BME280;43337;52.070;4.508;2022-10-16T14:02:33;101736.16;;;16.42;66.66
49030;BME280;43337;52.070;4.508;2022-10-16T14:05:01;101678.47;;;16.10;66.66
49030;BME280;43337;52.070;4.508;2022-10-16T14:07:29;101722.00;;;16.41;66.59
49030;BME280;43337;52.070;4.508;2022-10-16T14:10:01;101713.50;;;16.34;66.57
49030;BME280;43337;52.070;4.508;2022-10-16T14:12:28;101717.19;;;16.32;66.69
49030;BME280;43337;52.070;4.508;2022-10-16T14:14:54;101714.53;;;16.32;66.46
49030;BME280;43337;52.070;4.508;2022-10-16T14:17:23;101727.50;;;16.38;66.98
49030;BME280;43337;52.070;4.508;2022-10-16T14:19:53;101700.94;;;16.21;67.21
49030;BME280;43337;52.070;4.508;2022-10-16T14:22:37;101731.88;;;16.39;67.48
49030;BME280;43337;52.070;4.508;2022-10-16T14:28:17;101724.75;;;16.40;67.73
49030;BME280;43337;52.070;4.508;2022-10-16T14:30:54;101696.47;;;16.21;67.80
49030;BME280;43337;52.070;4.508;2022-10-16T14:39:05;101728.66;;;16.32;68.45
49030;BME280;43337;52.070;4.508;2022-10-16T14:41:33;101728.34;;;16.39;68.62
49030;BME280;43337;52.070;4.508;2022-10-16T14:44:06;101677.34;;;16.15;68.56
49030;BME280;43337;52.070;4.508;2022-10-16T14:46:34;101727.41;;;16.40;68.74
49030;BME280;43337;52.070;4.508;2022-10-16T14:49:04;101712.00;;;16.29;69.21
49030;BME280;43337;52.070;4.508;2022-10-16T14:51:39;101699.13;;;16.21;69.16
49030;BME280;43337;52.070;4.508;2022-10-16T14:54:08;101705.84;;;16.28;69.42
49030;BME280;43337;52.070;4.508;2022-10-16T14:59:25;101703.59;;;16.21;69.68